This is the latest recevied weather packets stored in our database for station/object KU9TRY. If no packets are shown the sender has not sent any weather packets the latest 10 day(s).
| Time | Temp. | Humidity | Pressure | Rain* | Wind** | Luminosity | Snow |
|---|---|---|---|---|---|---|---|
| 1777810349 | 5° C | 99% | 1022.8 hPa | 0 mm | - | 54 W/m² | - |
| 1777810045 | 5° C | 99% | 1022.5 hPa | 0 mm | - | 48 W/m² | - |
| 1777809440 | 5° C | 99% | 1022.4 hPa | 0 mm | - | 50 W/m² | - |
| 1777808532 | 4.44° C | 99% | 1022.1 hPa | 0 mm | - | 42 W/m² | - |
| 1777808229 | 4.44° C | 99% | 1022.1 hPa | 0 mm | - | 31 W/m² | - |
| 1777807625 | 4.44° C | 99% | 1021.7 hPa | 0 mm | - | 17 W/m² | - |
| 1777807018 | 3.89° C | 99% | 1021.8 hPa | 0 mm | - | 13 W/m² | - |
| 1777806715 | 3.89° C | 99% | 1021.7 hPa | 0 mm | - | 10 W/m² | - |
| 1777806410 | 3.89° C | 99% | 1021.7 hPa | 0 mm | - | 9 W/m² | - |
| 1777806108 | 3.89° C | 99% | 1021.4 hPa | 0 mm | - | 7 W/m² | - |
| 1777805804 | 3.89° C | 99% | 1021.4 hPa | 0 mm | - | 5 W/m² | - |
| 1777803989 | 3.89° C | 98% | 1021.2 hPa | 0 mm | - | 0 W/m² | - |
| 1777803686 | 3.89° C | 98% | 1021.2 hPa | 0 mm | - | 0 W/m² | - |
| 1777803080 | 3.89° C | 98% | 1021.1 hPa | 0 mm | - | 0 W/m² | - |
| 1777802777 | 3.89° C | 98% | 1021.1 hPa | 0 mm | - | 0 W/m² | - |
| 1777802475 | 3.89° C | 98% | 1021 hPa | 0 mm | - | 0 W/m² | - |
| 1777802172 | 3.89° C | 98% | 1021 hPa | 0 mm | - | 0 W/m² | - |
| 1777800959 | 3.89° C | 98% | 1020.9 hPa | 0 mm | - | 0 W/m² | - |
| 1777800657 | 4.44° C | 98% | 1020.7 hPa | 0 mm | - | 0 W/m² | - |
| 1777800352 | 4.44° C | 98% | 1020.9 hPa | 0 mm | - | 0 W/m² | - |
| 1777800049 | 4.44° C | 98% | 1020.9 hPa | 0 mm | - | 0 W/m² | - |
| 1777799744 | 4.44° C | 98% | 1021 hPa | 0 mm | - | 0 W/m² | - |
| 1777799442 | 4.44° C | 98% | 1020.8 hPa | 0 mm | - | 0 W/m² | - |
| 1777799137 | 4.44° C | 98% | 1020.9 hPa | 0 mm | - | 0 W/m² | - |
| 1777798833 | 4.44° C | 98% | 1021 hPa | 0 mm | - | 0 W/m² | - |
* Rain latest hour (hover to see other rain measurements)
** Current wind speed in m/s (hover to see current wind gust speed)